Time;durP1;ratioP1;P1;durP2;ratioP2;P2;SDS_P1;SDS_P2;PMS_P1;PMS_P2;Temp;Humidity;BMP_temperature;BMP_pressure;BME280_temperature;BME280_humidity;BME280_pressure;Samples;Min_cycle;Max_cycle;Signal;HPM_P1;HPM_P2
2021/03/30 04:15:21;;;;;;;15.00;2.63;;;4.50;96.00;;;;;;5094212;28;20637;-69
2021/03/30 04:17:47;;;;;;;11.15;2.28;;;4.50;95.70;;;;;;5084308;28;20044;-69
2021/03/30 04:20:15;;;;;;;15.32;2.53;;;4.50;95.60;;;;;;5094854;28;20024;-68
2021/03/30 04:22:43;;;;;;;14.10;2.55;;;4.50;95.80;;;;;;5094362;28;20024;-70
2021/03/30 04:25:09;;;;;;;16.13;2.67;;;4.50;95.50;;;;;;5094419;28;20035;-67
2021/03/30 04:27:35;;;;;;;14.23;3.15;;;4.50;95.70;;;;;;5094477;28;20031;-68
2021/03/30 04:30:01;;;;;;;16.00;2.58;;;4.50;95.40;;;;;;5094207;28;20020;-68
2021/03/30 04:32:26;;;;;;;17.77;2.65;;;4.50;95.20;;;;;;5094225;28;20028;-70
2021/03/30 04:34:52;;;;;;;14.15;3.30;;;4.50;95.20;;;;;;5094183;28;20024;-68
2021/03/30 04:37:19;;;;;;;15.60;3.15;;;4.50;95.20;;;;;;5094427;28;20035;-71
2021/03/30 04:39:45;;;;;;;12.00;1.98;;;4.60;94.70;;;;;;5094406;28;20415;-69
2021/03/30 04:42:11;;;;;;;15.80;2.30;;;5.00;99.90;;;;;;5094101;28;20055;-70
2021/03/30 04:44:37;;;;;;;14.13;2.38;;;5.80;94.70;;;;;;5085292;28;20068;-74
2021/03/30 04:47:03;;;;;;;15.55;3.63;;;5.60;91.90;;;;;;5092344;28;20549;-74
2021/03/30 04:49:29;;;;;;;16.42;3.53;;;5.50;91.50;;;;;;5091279;28;20020;-71
2021/03/30 04:51:55;;;;;;;15.55;3.58;;;5.50;91.30;;;;;;5091414;28;20020;-74
2021/03/30 04:54:21;;;;;;;13.63;2.55;;;5.50;90.80;;;;;;5088164;28;20028;-74
2021/03/30 04:56:47;;;;;;;19.35;2.97;;;5.50;90.40;;;;;;5091561;28;20530;-73
2021/03/30 04:59:13;;;;;;;16.38;3.17;;;5.50;89.80;;;;;;5091412;28;20056;-73
2021/03/30 05:01:38;;;;;;;16.30;2.55;;;5.70;89.10;;;;;;5093261;28;20098;-74
2021/03/30 05:04:04;;;;;;;15.80;2.58;;;6.00;88.70;;;;;;5093230;28;20024;-83
2021/03/30 05:06:30;;;;;;;18.45;3.00;;;6.30;86.20;;;;;;5093002;28;20485;-83
2021/03/30 05:08:56;;;;;;;13.35;2.35;;;6.60;83.30;;;;;;5092936;28;20046;-84
2021/03/30 05:11:22;;;;;;;10.88;2.17;;;6.70;82.10;;;;;;5092982;28;20058;-83
2021/03/30 05:13:48;;;;;;;18.75;2.70;;;6.90;81.90;;;;;;5093131;28;20055;-83
2021/03/30 05:16:14;;;;;;;12.25;2.90;;;7.20;80.00;;;;;;5092219;28;20052;-83
2021/03/30 05:18:41;;;;;;;12.27;2.88;;;7.60;80.20;;;;;;5093815;28;20027;-76
2021/03/30 05:21:07;;;;;;;12.73;2.28;;;7.70;77.50;;;;;;5093106;28;20055;-75
2021/03/30 05:23:33;;;;;;;18.02;3.50;;;7.50;76.10;;;;;;5093431;28;20024;-72
2021/03/30 05:25:59;;;;;;;19.55;2.85;;;7.30;77.10;;;;;;5093176;28;20046;-73
2021/03/30 05:28:25;;;;;;;15.50;2.70;;;7.00;77.20;;;;;;5093111;28;20072;-73
2021/03/30 05:30:50;;;;;;;14.65;2.45;;;6.80;77.10;;;;;;5093401;28;20114;-73
2021/03/30 05:33:16;;;;;;;16.77;2.22;;;6.70;77.40;;;;;;5093061;28;20663;-73
2021/03/30 05:35:42;;;;;;;12.77;3.13;;;6.50;77.90;;;;;;5074857;28;20491;-73
2021/03/30 05:38:07;;;;;;;10.88;2.28;;;6.30;77.90;;;;;;5092986;28;20081;-73
2021/03/30 05:40:33;;;;;;;12.40;2.08;;;6.30;78.20;;;;;;5092878;28;20537;-73
2021/03/30 05:42:59;;;;;;;11.10;2.97;;;6.30;78.90;;;;;;5092889;28;20046;-73
2021/03/30 05:45:25;;;;;;;13.55;2.88;;;6.20;78.80;;;;;;5092972;28;20384;-76
2021/03/30 05:47:54;;;;;;;14.50;2.65;;;6.10;78.40;;;;;;5092695;28;20016;-79
2021/03/30 05:50:22;;;;;;;14.27;2.30;;;6.10;78.70;;;;;;5093167;28;20098;-73
2021/03/30 05:53:05;;;;;;;13.27;2.50;;;6.10;78.50;;;;;;5092947;28;20032;-71
2021/03/30 05:55:34;;;;;;;19.95;3.78;;;6.00;78.00;;;;;;5090812;28;20483;-71
2021/03/30 05:58:02;;;;;;;10.48;2.25;;;6.00;78.30;;;;;;5092709;28;20035;-72
2021/03/30 06:00:33;;;;;;;11.73;2.63;;;6.00;78.00;;;;;;5092416;28;20027;-78
2021/03/30 06:03:21;;;;;;;9.77;2.30;;;6.00;77.80;;;;;;5092596;28;20073;-70
2021/03/30 06:05:55;;;;;;;11.95;2.47;;;6.20;78.40;;;;;;5092741;28;20016;-70
2021/03/30 06:08:22;;;;;;;14.50;2.80;;;6.40;77.20;;;;;;5092586;28;20115;-69
2021/03/30 06:10:52;;;;;;;15.90;2.58;;;6.70;78.00;;;;;;5092765;28;20036;-71
2021/03/30 06:13:46;;;;;;;9.57;2.07;;;7.10;76.80;;;;;;5092368;28;20410;-72
2021/03/30 06:16:27;;;;;;;15.15;2.75;;;7.40;72.60;;;;;;5089917;28;20054;-67
2021/03/30 06:19:08;;;;;;;14.88;2.75;;;7.30;72.30;;;;;;5087024;28;20111;-68
2021/03/30 06:22:00;;;;;;;7.22;1.85;;;7.30;72.40;;;;;;5091223;28;20032;-68
2021/03/30 06:24:30;;;;;;;10.10;2.25;;;7.10;72.10;;;;;;5082038;28;20059;-68
2021/03/30 06:27:04;;;;;;;17.35;2.20;;;7.20;72.50;;;;;;5091133;28;20059;-67
2021/03/30 06:29:35;;;;;;;10.10;2.30;;;7.40;73.40;;;;;;5088802;28;20024;-69
2021/03/30 06:32:10;;;;;;;11.77;2.13;;;8.10;76.30;;;;;;5091998;28;20032;-77
2021/03/30 06:34:37;;;;;;;5.47;1.48;;;8.60;73.60;;;;;;5088368;28;20013;-78
2021/03/30 06:37:25;;;;;;;8.65;2.10;;;8.60;69.30;;;;;;5091863;28;20028;-76
2021/03/30 06:39:52;;;;;;;8.32;1.85;;;8.50;69.30;;;;;;5071391;28;20395;-79
2021/03/30 06:45:00;;;;;;;11.05;1.80;;;8.30;68.20;;;;;;5090061;28;20020;-77
2021/03/30 06:47:26;;;;;;;10.98;2.05;;;8.30;67.00;;;;;;5091903;28;20482;-73
2021/03/30 06:49:58;;;;;;;10.27;2.42;;;8.20;66.30;;;;;;5091633;28;20024;-71
2021/03/30 06:52:30;;;;;;;3.58;1.05;;;8.40;69.20;;;;;;5091625;28;20024;-77
2021/03/30 06:55:10;;;;;;;9.88;1.73;;;8.40;66.60;;;;;;5091303;28;20089;-71
2021/03/30 06:57:44;;;;;;;;;;;8.30;66.00;;;;;;5092366;28;20031;-70
2021/03/30 07:00:29;;;;;;;5.78;1.40;;;8.20;64.60;;;;;;5091018;28;19908;-72
2021/03/30 07:03:02;;;;;;;7.72;1.70;;;8.10;65.70;;;;;;5079052;28;20055;-73
2021/03/30 07:05:39;;;;;;;10.18;1.58;;;8.00;66.40;;;;;;5091306;28;20115;-70
2021/03/30 07:08:10;;;;;;;7.18;1.50;;;8.00;65.90;;;;;;5091098;28;20390;-72
2021/03/30 07:10:40;;;;;;;7.30;1.80;;;8.00;65.70;;;;;;5091428;28;20042;-71
2021/03/30 07:13:07;;;;;;;7.28;1.77;;;7.90;65.60;;;;;;5098194;28;20107;-72
2021/03/30 07:15:34;;;;;;;6.70;1.38;;;8.00;66.50;;;;;;5095119;28;20421;-75
2021/03/30 07:18:05;;;;;;;9.50;1.90;;;7.90;66.00;;;;;;5097622;28;20043;-70
2021/03/30 07:20:53;;;;;;;6.85;1.42;;;7.90;65.70;;;;;;5097577;28;20038;-69
2021/03/30 07:23:26;;;;;;;5.43;1.58;;;8.30;71.40;;;;;;5097436;28;20040;-74
2021/03/30 07:26:12;;;;;;;8.30;1.50;;;9.10;67.30;;;;;;5098465;28;20024;-74
2021/03/30 07:28:44;;;;;;;9.20;1.80;;;8.60;63.70;;;;;;5098509;28;20035;-74
2021/03/30 07:31:33;;;;;;;6.55;1.27;;;8.30;64.90;;;;;;5098340;28;20506;-74
2021/03/30 07:34:14;;;;;;;8.00;1.60;;;8.20;65.70;;;;;;5087275;28;20040;-74
2021/03/30 07:36:52;;;;;;;6.05;1.45;;;7.90;65.30;;;;;;5098556;28;20161;-74
2021/03/30 07:39:20;;;;;;;8.32;1.90;;;7.80;65.90;;;;;;5098399;28;20024;-74
2021/03/30 07:41:47;;;;;;;5.30;1.25;;;7.70;65.90;;;;;;5098298;28;20020;-74
2021/03/30 07:44:14;;;;;;;10.73;1.80;;;7.60;65.90;;;;;;5098246;28;20036;-74
2021/03/30 07:46:40;;;;;;;6.78;1.40;;;7.60;65.90;;;;;;5098524;28;20030;-74
2021/03/30 07:49:07;;;;;;;9.85;1.90;;;7.50;66.40;;;;;;5098629;28;20063;-74
2021/03/30 07:51:42;;;;;;;7.85;1.70;;;7.40;66.80;;;;;;5098049;28;20062;-74
2021/03/30 07:54:10;;;;;;;10.85;1.25;;;7.40;66.90;;;;;;5098077;28;20070;-74
2021/03/30 07:56:39;;;;;;;8.43;1.67;;;7.50;67.00;;;;;;5098394;28;20028;-74
2021/03/30 07:59:06;;;;;;;8.57;1.85;;;7.40;66.30;;;;;;5098013;28;20031;-74
2021/03/30 08:01:33;;;;;;;5.32;1.67;;;7.40;67.00;;;;;;5098136;28;20417;-74
2021/03/30 08:04:01;;;;;;;6.70;1.70;;;7.40;66.20;;;;;;5098543;28;20172;-74
2021/03/30 08:06:34;;;;;;;8.07;1.38;;;7.40;66.90;;;;;;5098608;28;20028;-74
2021/03/30 08:09:14;;;;;;;7.80;1.80;;;7.40;66.70;;;;;;5098321;28;20027;-73
2021/03/30 08:11:40;;;;;;;9.38;2.13;;;7.40;66.80;;;;;;5098420;28;20118;-74
2021/03/30 08:14:07;;;;;;;5.28;1.67;;;7.40;66.40;;;;;;5097599;28;20110;-73
2021/03/30 08:16:35;;;;;;;11.85;1.58;;;7.40;66.50;;;;;;5098370;28;20036;-73
2021/03/30 08:19:05;;;;;;;8.75;1.42;;;7.40;66.80;;;;;;5098339;28;20028;-73
2021/03/30 08:22:01;;;;;;;10.95;1.63;;;7.40;66.70;;;;;;5098275;28;20126;-74
2021/03/30 08:24:28;;;;;;;10.02;1.52;;;7.30;66.50;;;;;;5093798;28;20111;-73
2021/03/30 08:26:54;;;;;;;8.38;1.15;;;7.40;66.40;;;;;;5094933;28;20039;-73
2021/03/30 08:29:36;;;;;;;13.38;1.30;;;7.40;66.20;;;;;;5094592;28;20452;-73
2021/03/30 08:32:03;;;;;;;14.85;1.73;;;7.40;65.80;;;;;;5095054;28;20425;-74
2021/03/30 08:34:41;;;;;;;7.78;1.50;;;8.20;73.40;;;;;;5094437;28;20060;-73
2021/03/30 08:37:12;;;;;;;7.88;1.23;;;8.30;65.00;;;;;;5094539;28;20030;-73
2021/03/30 08:39:39;;;;;;;10.18;1.75;;;8.20;64.90;;;;;;5094848;28;20464;-74
2021/03/30 08:42:05;;;;;;;6.25;1.35;;;8.10;64.50;;;;;;5074153;28;20068;-74
2021/03/30 08:44:45;;;;;;;15.40;1.98;;;8.00;64.60;;;;;;5074578;28;20052;-71
2021/03/30 08:47:47;;;;;;;5.85;1.73;;;8.00;64.40;;;;;;5074517;28;20029;-68
2021/03/30 08:50:23;;;;;;;8.15;1.55;;;8.10;65.40;;;;;;5044125;28;20060;-71
2021/03/30 08:52:53;;;;;;;6.45;1.20;;;8.10;63.90;;;;;;5089199;28;20036;-70
2021/03/30 08:55:41;;;;;;;8.07;1.65;;;7.90;63.30;;;;;;5094529;28;20069;-70
2021/03/30 08:58:08;;;;;;;7.15;1.80;;;7.80;63.20;;;;;;5093547;28;20437;-70
2021/03/30 09:00:34;;;;;;;6.50;1.63;;;7.70;62.70;;;;;;5093763;28;20024;-82
2021/03/30 09:03:02;;;;;;;6.72;1.90;;;7.70;63.20;;;;;;5094112;28;20086;-87
2021/03/30 09:05:34;;;;;;;10.13;1.67;;;7.70;63.80;;;;;;5091715;28;20089;-82
2021/03/30 09:08:01;;;;;;;10.48;1.73;;;7.70;63.50;;;;;;5093946;28;20024;-84
2021/03/30 09:10:26;;;;;;;8.23;1.30;;;7.70;62.70;;;;;;5094240;28;20058;-82
2021/03/30 09:13:12;;;;;;;8.73;1.40;;;7.60;62.90;;;;;;5093989;28;20020;-82
2021/03/30 09:15:38;;;;;;;8.15;1.30;;;7.60;62.50;;;;;;5093482;28;20096;-79
2021/03/30 09:18:03;;;;;;;10.07;1.95;;;7.60;61.90;;;;;;5093934;28;20036;-87
2021/03/30 09:20:34;;;;;;;9.10;1.33;;;7.60;62.70;;;;;;5095891;28;20521;-76
2021/03/30 09:23:12;;;;;;;6.80;1.85;;;7.50;62.60;;;;;;5090233;28;20103;-77
2021/03/30 09:25:40;;;;;;;5.88;1.70;;;7.50;61.90;;;;;;5090954;28;20040;-78
2021/03/30 09:28:14;;;;;;;6.10;1.30;;;7.50;62.40;;;;;;5093754;28;20082;-82
2021/03/30 09:30:43;;;;;;;9.73;1.65;;;7.50;62.50;;;;;;5075156;28;20103;-83
2021/03/30 09:33:09;;;;;;;9.65;1.50;;;7.60;62.60;;;;;;5093460;28;20042;-71
2021/03/30 09:35:35;;;;;;;20.55;2.20;;;7.90;69.70;;;;;;5093521;28;20047;-82
2021/03/30 09:38:03;;;;;;;9.25;1.88;;;9.30;71.00;;;;;;5093529;28;20020;-82
2021/03/30 09:40:33;;;;;;;13.68;1.63;;;9.10;60.10;;;;;;5093648;28;20031;-86
2021/03/30 09:42:59;;;;;;;5.20;1.63;;;8.60;60.20;;;;;;5093567;28;20097;-82
2021/03/30 09:45:29;;;;;;;10.63;1.80;;;8.30;60.90;;;;;;5093661;28;20085;-83
2021/03/30 09:47:55;;;;;;;6.90;1.45;;;8.20;61.10;;;;;;5093724;28;20369;-85
2021/03/30 09:50:24;;;;;;;8.30;1.63;;;8.00;60.90;;;;;;5093614;28;20028;-86
2021/03/30 09:52:51;;;;;;;7.45;1.92;;;7.90;60.80;;;;;;5093336;28;20067;-85
2021/03/30 09:55:29;;;;;;;12.43;1.83;;;7.90;61.10;;;;;;5093562;28;20479;-87
2021/03/30 09:58:01;;;;;;;13.02;2.47;;;8.00;61.00;;;;;;5093575;28;20103;-86
2021/03/30 10:00:28;;;;;;;12.15;2.17;;;8.00;61.10;;;;;;5093377;28;20368;-79
2021/03/30 10:02:54;;;;;;;6.85;1.50;;;8.00;60.70;;;;;;5092907;28;20032;-83
2021/03/30 10:05:20;;;;;;;10.10;1.73;;;8.00;61.50;;;;;;5092563;28;20032;-83
2021/03/30 10:07:45;;;;;;;7.95;1.67;;;7.90;59.90;;;;;;5093069;28;20031;-82
2021/03/30 10:10:13;;;;;;;4.90;1.50;;;7.90;60.00;;;;;;5092840;28;20028;-79
2021/03/30 10:12:53;;;;;;;5.25;1.52;;;7.80;59.90;;;;;;5092842;28;20111;-80
2021/03/30 10:15:29;;;;;;;;;;;7.80;59.30;;;;;;5092794;28;20090;-80
2021/03/30 10:17:55;;;;;;;5.18;1.42;;;7.80;58.90;;;;;;5092841;28;19904;-80
2021/03/30 10:20:20;;;;;;;8.55;1.73;;;7.80;59.60;;;;;;5092642;28;20376;-80
2021/03/30 10:22:48;;;;;;;6.72;1.67;;;7.80;59.80;;;;;;5092939;28;20016;-81
2021/03/30 10:25:18;;;;;;;9.70;1.80;;;7.90;59.80;;;;;;5092866;28;20529;-80
2021/03/30 10:28:02;;;;;;;6.75;1.90;;;7.90;59.50;;;;;;5092868;28;20107;-80
2021/03/30 10:30:34;;;;;;;6.57;1.88;;;8.00;59.20;;;;;;5092596;28;20024;-80
2021/03/30 10:33:05;;;;;;;10.80;1.90;;;8.00;58.90;;;;;;5092939;28;20058;-77
2021/03/30 10:35:31;;;;;;;7.47;1.40;;;8.10;59.00;;;;;;5092092;28;20487;-84
2021/03/30 10:37:57;;;;;;;7.68;1.80;;;8.10;58.90;;;;;;5092205;28;20067;-80
2021/03/30 10:40:37;;;;;;;13.15;1.70;;;8.10;58.80;;;;;;5083298;28;20095;-86
2021/03/30 10:43:22;;;;;;;12.07;1.87;;;8.10;58.80;;;;;;5090749;28;20031;-82
2021/03/30 10:45:48;;;;;;;8.65;1.70;;;8.10;59.30;;;;;;5086748;28;20633;-80
2021/03/30 10:48:14;;;;;;;6.47;1.70;;;8.20;59.40;;;;;;5092184;28;20440;-81
2021/03/30 10:50:40;;;;;;;9.73;2.05;;;8.20;59.10;;;;;;5092318;28;20091;-78
2021/03/30 10:53:07;;;;;;;8.27;1.52;;;8.20;59.30;;;;;;5092585;28;20115;-76
2021/03/30 10:55:33;;;;;;;8.70;1.50;;;8.30;59.00;;;;;;5091892;28;20039;-77
2021/03/30 10:58:00;;;;;;;4.82;1.15;;;8.20;59.30;;;;;;5091984;28;20050;-77
2021/03/30 11:00:26;;;;;;;8.68;1.60;;;8.30;59.00;;;;;;5092346;28;20028;-75
2021/03/30 11:02:54;;;;;;;7.38;1.88;;;8.40;59.20;;;;;;5092462;28;20548;-77
2021/03/30 11:05:19;;;;;;;7.40;1.40;;;8.40;59.20;;;;;;5092361;28;20028;-78
2021/03/30 11:07:45;;;;;;;13.18;2.78;;;8.40;58.50;;;;;;5091893;28;20548;-77
2021/03/30 11:10:11;;;;;;;9.13;1.38;;;8.30;58.90;;;;;;5092189;28;20025;-75
2021/03/30 11:12:39;;;;;;;5.63;1.10;;;8.30;59.20;;;;;;5092227;28;20028;-79
2021/03/30 11:15:07;;;;;;;7.25;1.30;;;8.20;59.10;;;;;;5091893;28;20044;-79
2021/03/30 11:17:32;;;;;;;4.18;1.25;;;8.20;59.10;;;;;;5091854;28;20060;-78
2021/03/30 11:19:58;;;;;;;8.73;1.50;;;8.10;58.90;;;;;;5092025;28;20068;-78
2021/03/30 11:22:24;;;;;;;4.00;1.20;;;8.10;59.10;;;;;;5092090;28;20032;-79
2021/03/30 11:24:58;;;;;;;3.95;1.23;;;8.10;59.50;;;;;;5091949;28;20020;-79
2021/03/30 11:27:23;;;;;;;5.97;1.40;;;8.10;59.50;;;;;;5091378;28;20120;-79
2021/03/30 11:30:15;;;;;;;6.75;1.80;;;8.10;59.80;;;;;;5092206;28;20052;-82
2021/03/30 11:35:21;;;;;;;8.77;1.20;;;8.50;61.10;;;;;;5091924;28;20054;-84
2021/03/30 11:40:17;;;;;;;6.43;1.33;;;8.30;60.60;;;;;;5091930;28;20483;-84
2021/03/30 11:42:42;;;;;;;7.95;2.00;;;8.30;60.00;;;;;;5091784;28;20043;-85
2021/03/30 11:45:09;;;;;;;4.25;1.48;;;8.20;60.00;;;;;;5091651;28;20036;-85
2021/03/30 11:47:35;;;;;;;7.30;1.45;;;8.30;60.20;;;;;;5091505;28;20023;-86
2021/03/30 11:50:04;;;;;;;3.67;0.98;;;8.30;60.10;;;;;;5092016;28;20417;-85
2021/03/30 11:52:29;;;;;;;3.15;1.02;;;8.20;60.00;;;;;;5091498;28;20027;-84
2021/03/30 11:54:55;;;;;;;4.65;1.10;;;8.20;60.00;;;;;;5091932;28;20032;-85
2021/03/30 11:57:21;;;;;;;5.43;1.02;;;8.30;60.50;;;;;;5092369;28;20027;-86
2021/03/30 11:59:47;;;;;;;14.50;1.70;;;8.30;60.50;;;;;;5095164;28;20020;-85
2021/03/30 12:02:12;;;;;;;5.45;1.08;;;8.30;60.20;;;;;;5095611;28;20123;-86
2021/03/30 12:04:38;;;;;;;3.00;1.30;;;8.20;60.10;;;;;;5095615;28;20024;-84
2021/03/30 12:07:04;;;;;;;8.52;1.15;;;8.60;63.50;;;;;;5095560;28;20483;-85
2021/03/30 12:09:30;;;;;;;2.45;0.82;;;8.60;60.40;;;;;;5095499;28;20487;-84
2021/03/30 12:11:55;;;;;;;9.82;0.98;;;8.50;60.00;;;;;;5096670;28;20032;-81
2021/03/30 12:14:21;;;;;;;4.53;0.90;;;8.40;60.20;;;;;;5094904;28;20073;-83
2021/03/30 12:16:49;;;;;;;4.10;0.95;;;8.30;60.40;;;;;;5095487;28;20053;-82
2021/03/30 12:19:16;;;;;;;4.10;0.90;;;8.30;60.60;;;;;;5095085;28;20020;-79
2021/03/30 12:21:42;;;;;;;4.35;1.08;;;8.30;60.90;;;;;;5095012;28;20026;-84
2021/03/30 12:24:09;;;;;;;8.50;1.10;;;8.20;61.00;;;;;;5095117;28;20016;-82
2021/03/30 12:26:34;;;;;;;2.95;0.95;;;8.20;61.60;;;;;;5094994;28;20032;-81
2021/03/30 12:29:02;;;;;;;8.43;1.20;;;8.30;61.50;;;;;;5095356;28;20024;-82
2021/03/30 12:31:29;;;;;;;9.75;0.90;;;8.30;61.40;;;;;;5095234;28;20044;-81
2021/03/30 12:33:55;;;;;;;12.23;1.55;;;8.30;61.30;;;;;;5094907;28;20514;-81
2021/03/30 12:36:21;;;;;;;6.70;0.90;;;8.30;61.10;;;;;;5094616;28;20067;-81
2021/03/30 12:38:46;;;;;;;7.18;0.88;;;8.20;61.10;;;;;;5095008;28;20103;-81
2021/03/30 12:41:12;;;;;;;2.85;0.70;;;8.30;61.50;;;;;;5094804;28;20176;-81
2021/03/30 12:43:38;;;;;;;1.17;0.60;;;8.30;61.50;;;;;;5094534;28;20028;-80
2021/03/30 12:46:04;;;;;;;4.70;0.80;;;8.30;61.40;;;;;;5094677;28;20030;-82
2021/03/30 12:48:29;;;;;;;3.88;0.60;;;8.30;61.30;;;;;;5094700;28;20020;-82
2021/03/30 12:50:56;;;;;;;1.80;0.70;;;8.30;61.20;;;;;;5094583;28;20031;-81
2021/03/30 12:53:22;;;;;;;6.30;0.80;;;8.30;61.40;;;;;;5094376;28;20035;-80
2021/03/30 12:55:48;;;;;;;1.27;0.70;;;8.30;61.40;;;;;;5094633;28;20039;-81
2021/03/30 12:58:14;;;;;;;6.35;0.80;;;8.30;61.20;;;;;;5094184;28;20111;-81
2021/03/30 13:00:40;;;;;;;1.30;0.40;;;8.40;61.60;;;;;;5094518;28;20099;-81
2021/03/30 13:03:05;;;;;;;6.70;0.80;;;8.40;61.10;;;;;;5094232;28;20365;-82
2021/03/30 13:05:31;;;;;;;0.73;0.43;;;8.30;60.80;;;;;;5094391;28;20028;-81
2021/03/30 13:07:57;;;;;;;5.63;0.85;;;8.30;61.30;;;;;;5094075;28;20115;-81
2021/03/30 13:10:22;;;;;;;3.20;0.50;;;8.40;61.40;;;;;;5093534;28;20066;-81
2021/03/30 13:12:48;;;;;;;2.22;0.60;;;8.40;61.30;;;;;;5094331;28;20028;-79
2021/03/30 13:15:14;;;;;;;7.53;0.50;;;8.30;61.30;;;;;;5093809;28;20380;-83
2021/03/30 13:17:40;;;;;;;5.97;0.57;;;8.30;61.40;;;;;;5094058;28;20020;-80
2021/03/30 13:20:07;;;;;;;6.40;0.40;;;8.30;61.40;;;;;;5094010;28;20085;-83
2021/03/30 13:22:33;;;;;;;4.35;0.50;;;8.30;61.20;;;;;;5093897;28;20036;-86
2021/03/30 13:25:02;;;;;;;7.55;0.75;;;8.30;61.80;;;;;;5094356;28;20055;-87
2021/03/30 13:27:29;;;;;;;1.67;0.43;;;8.30;62.00;;;;;;5094318;28;20035;-87
2021/03/30 13:29:55;;;;;;;15.98;1.30;;;8.40;62.10;;;;;;5093881;28;20027;-84
2021/03/30 13:32:21;;;;;;;8.05;0.60;;;8.40;61.20;;;;;;5093650;28;20031;-81
2021/03/30 13:34:48;;;;;;;3.47;0.57;;;8.40;61.10;;;;;;5093599;28;20074;-80
2021/03/30 13:37:16;;;;;;;4.43;0.60;;;8.40;61.00;;;;;;5093873;28;20031;-86
2021/03/30 13:39:42;;;;;;;0.40;0.40;;;8.30;61.10;;;;;;5093638;28;20123;-80
2021/03/30 13:42:10;;;;;;;0.80;0.50;;;8.30;61.30;;;;;;5093441;28;20107;-81
2021/03/30 13:44:35;;;;;;;3.53;0.47;;;8.40;61.50;;;;;;5093322;28;20020;-82
2021/03/30 13:47:03;;;;;;;4.80;0.73;;;8.40;61.40;;;;;;5093448;28;20024;-81
2021/03/30 13:49:30;;;;;;;4.05;0.50;;;8.40;61.10;;;;;;5092832;28;20028;-86
2021/03/30 13:51:56;;;;;;;1.55;0.40;;;8.40;61.50;;;;;;5093196;28;20103;-84
2021/03/30 13:54:24;;;;;;;0.40;0.40;;;8.40;61.40;;;;;;5092705;28;20059;-85
2021/03/30 13:56:51;;;;;;;1.85;0.40;;;8.50;61.70;;;;;;5072259;28;20039;-85
2021/03/30 13:59:17;;;;;;;11.20;0.63;;;8.40;61.20;;;;;;5092932;28;20012;-85
2021/03/30 14:01:43;;;;;;;2.03;0.50;;;8.40;61.40;;;;;;5092654;28;20536;-82
2021/03/30 14:04:09;;;;;;;1.50;0.50;;;8.50;61.30;;;;;;5092638;28;20020;-80
2021/03/30 14:06:35;;;;;;;3.15;0.55;;;8.50;61.20;;;;;;5092623;28;20070;-81
2021/03/30 14:09:01;;;;;;;1.77;0.73;;;8.50;61.30;;;;;;5092717;28;20487;-80
2021/03/30 14:11:35;;;;;;;5.57;0.52;;;8.50;60.70;;;;;;5092752;28;20016;-80
2021/03/30 14:14:09;;;;;;;0.77;0.52;;;8.50;61.10;;;;;;5090347;28;20021;-79
2021/03/30 14:17:00;;;;;;;6.50;0.60;;;8.50;61.10;;;;;;5089475;28;20038;-79
2021/03/30 14:22:14;;;;;;;3.42;0.60;;;8.60;60.70;;;;;;5090569;28;20035;-80
2021/03/30 14:25:04;;;;;;;2.13;0.60;;;8.60;60.70;;;;;;5090423;28;20131;-80
2021/03/30 14:27:31;;;;;;;1.20;0.50;;;8.60;60.70;;;;;;5091674;28;20384;-81
2021/03/30 14:29:56;;;;;;;2.35;0.57;;;8.60;60.50;;;;;;5092540;28;20491;-81
2021/03/30 14:32:25;;;;;;;1.23;0.50;;;8.60;60.70;;;;;;5092043;28;20038;-81
2021/03/30 14:34:54;;;;;;;2.60;0.60;;;8.60;60.00;;;;;;5092009;28;20066;-82
2021/03/30 14:37:24;;;;;;;3.20;0.55;;;8.60;60.10;;;;;;5092037;28;20032;-81
2021/03/30 14:39:52;;;;;;;1.70;0.50;;;8.60;60.10;;;;;;5092217;28;20024;-82
2021/03/30 14:42:20;;;;;;;3.00;0.50;;;8.60;60.20;;;;;;5091846;28;20016;-81
2021/03/30 14:44:59;;;;;;;16.15;0.90;;;8.60;60.60;;;;;;5091962;28;20055;-81
2021/03/30 14:55:44;;;;;;;1.48;0.50;;;8.60;60.90;;;;;;5091847;28;20016;-81
2021/03/30 15:03:50;;;;;;;2.00;0.68;;;8.70;60.80;;;;;;5091550;28;20028;-81
2021/03/30 15:05:50;;;;;;;4.22;0.90;;;8.70;60.80;;;;;;5083626;28;20047;-82
2021/03/30 15:08:16;;;;;;;3.45;0.70;;;8.60;61.00;;;;;;5088947;28;20597;-81
2021/03/30 15:10:42;;;;;;;2.25;0.40;;;8.60;61.10;;;;;;5091528;28;20028;-81
2021/03/30 15:13:08;;;;;;;1.35;0.50;;;8.60;61.40;;;;;;5091760;28;20070;-88
2021/03/30 15:15:38;;;;;;;2.47;0.60;;;8.60;61.70;;;;;;5092175;28;20044;-88
2021/03/30 15:18:04;;;;;;;5.35;0.77;;;8.60;61.80;;;;;;5092495;28;20526;-86
2021/03/30 15:20:30;;;;;;;4.63;0.70;;;8.50;61.60;;;;;;5074450;28;20551;-88
2021/03/30 15:22:56;;;;;;;1.63;0.50;;;8.50;61.80;;;;;;5092261;28;20111;-87
2021/03/30 15:25:22;;;;;;;8.38;0.98;;;8.50;62.40;;;;;;5092141;28;20024;-87
2021/03/30 15:27:48;;;;;;;7.30;0.70;;;8.40;63.20;;;;;;5091986;28;20021;-86
2021/03/30 15:30:15;;;;;;;3.83;0.70;;;8.30;63.80;;;;;;5091934;28;20020;-78
2021/03/30 15:32:41;;;;;;;0.32;0.32;;;8.30;65.20;;;;;;5093977;28;20017;-85
2021/03/30 15:35:09;;;;;;;2.55;0.50;;;8.30;65.30;;;;;;5096177;28;20020;-88
2021/03/30 15:37:35;;;;;;;0.40;0.40;;;8.20;66.00;;;;;;5096002;28;20368;-88
2021/03/30 15:40:07;;;;;;;4.10;1.02;;;8.10;66.30;;;;;;5096650;28;20082;-88
2021/03/30 15:42:33;;;;;;;5.20;0.60;;;8.10;66.80;;;;;;5097358;28;20012;-83
2021/03/30 15:47:28;;;;;;;2.78;0.50;;;8.10;67.30;;;;;;5095799;28;20039;-85
2021/03/30 15:49:59;;;;;;;2.58;0.60;;;8.10;67.50;;;;;;5097406;28;20028;-88
2021/03/30 15:52:26;;;;;;;0.95;0.73;;;8.10;67.60;;;;;;5097068;28;20023;-80
2021/03/30 15:57:19;;;;;;;7.63;0.70;;;8.10;67.60;;;;;;5096706;28;20051;-78
2021/03/30 15:59:45;;;;;;;1.15;0.50;;;8.10;67.80;;;;;;5095627;28;20212;-78
2021/03/30 16:02:13;;;;;;;4.63;0.60;;;8.10;67.90;;;;;;5094510;28;20035;-79
2021/03/30 16:04:40;;;;;;;1.20;0.60;;;8.30;70.00;;;;;;5094559;28;20415;-82
2021/03/30 16:07:07;;;;;;;7.05;0.60;;;8.30;67.80;;;;;;5076735;28;20020;-81
2021/03/30 16:09:33;;;;;;;3.03;0.70;;;8.20;67.80;;;;;;5092269;28;20042;-82
2021/03/30 16:11:59;;;;;;;1.77;0.88;;;8.20;68.00;;;;;;5094682;28;20023;-82
2021/03/30 16:14:25;;;;;;;3.33;0.68;;;8.10;68.00;;;;;;5094711;28;20040;-79
2021/03/30 16:16:50;;;;;;;4.25;0.60;;;8.10;68.10;;;;;;5094581;28;20028;-78
2021/03/30 16:19:16;;;;;;;9.77;0.82;;;8.20;68.20;;;;;;5094578;28;20099;-79
2021/03/30 16:21:42;;;;;;;3.30;0.73;;;8.20;68.00;;;;;;5094570;28;20028;-80
2021/03/30 16:24:08;;;;;;;3.22;0.65;;;8.20;68.10;;;;;;5094515;28;20020;-81
2021/03/30 16:26:33;;;;;;;6.85;0.90;;;8.20;68.00;;;;;;5089074;28;20016;-81
2021/03/30 16:28:59;;;;;;;7.30;0.80;;;8.20;67.90;;;;;;5094829;28;20114;-80
2021/03/30 16:31:25;;;;;;;1.65;0.82;;;8.20;67.80;;;;;;5094851;28;20128;-80
2021/03/30 16:33:51;;;;;;;1.40;0.50;;;8.40;70.60;;;;;;5094365;28;20059;-78
2021/03/30 16:36:17;;;;;;;1.20;0.40;;;8.40;67.30;;;;;;5094280;28;20035;-79
2021/03/30 16:38:43;;;;;;;7.40;0.80;;;8.20;67.30;;;;;;5094606;28;20016;-80
2021/03/30 16:41:10;;;;;;;2.58;0.47;;;8.20;67.60;;;;;;5094376;28;20495;-79
2021/03/30 16:43:37;;;;;;;0.65;0.38;;;8.10;67.60;;;;;;5093141;28;20024;-79
2021/03/30 16:46:02;;;;;;;3.13;0.68;;;8.00;67.80;;;;;;5094098;28;20028;-79
2021/03/30 16:48:29;;;;;;;5.88;0.55;;;8.00;68.00;;;;;;5094329;28;20016;-81
2021/03/30 16:50:58;;;;;;;2.38;0.50;;;8.00;68.00;;;;;;5094120;28;20020;-81
2021/03/30 16:53:24;;;;;;;1.88;0.60;;;8.00;68.20;;;;;;5093973;28;20030;-81
2021/03/30 16:55:50;;;;;;;1.55;0.40;;;7.90;68.40;;;;;;5093698;28;20032;-78
2021/03/30 16:58:16;;;;;;;3.90;0.50;;;7.90;68.80;;;;;;5093912;28;20026;-77
2021/03/30 17:00:42;;;;;;;2.72;0.60;;;7.90;69.00;;;;;;5093781;28;20434;-78
2021/03/30 17:03:12;;;;;;;2.22;0.50;;;7.90;68.80;;;;;;5093759;28;20379;-79
2021/03/30 17:05:38;;;;;;;4.65;0.52;;;7.80;69.00;;;;;;5094251;28;20020;-80
2021/03/30 17:08:04;;;;;;;0.75;0.40;;;7.80;69.10;;;;;;5093759;28;20491;-79
2021/03/30 17:10:30;;;;;;;1.98;0.40;;;7.70;69.50;;;;;;5093674;28;20023;-81
2021/03/30 17:12:56;;;;;;;4.82;0.65;;;7.70;69.70;;;;;;5093623;28;20024;-81
2021/03/30 17:15:22;;;;;;;3.05;0.57;;;7.70;70.00;;;;;;5093557;28;20051;-80
2021/03/30 17:17:47;;;;;;;0.98;0.50;;;7.70;70.40;;;;;;5094061;28;20050;-79
2021/03/30 17:20:13;;;;;;;0.95;0.40;;;7.60;70.40;;;;;;5094255;28;20031;-78
2021/03/30 17:22:39;;;;;;;1.20;0.52;;;7.60;70.50;;;;;;5094113;28;20028;-78
2021/03/30 17:25:06;;;;;;;0.30;0.30;;;7.60;70.60;;;;;;5093989;28;20020;-78
2021/03/30 17:27:31;;;;;;;0.55;0.38;;;7.50;70.80;;;;;;5093800;28;20454;-75
2021/03/30 17:29:58;;;;;;;6.18;0.77;;;7.50;71.00;;;;;;5094224;28;20020;-87
2021/03/30 17:32:23;;;;;;;2.28;0.40;;;7.50;71.90;;;;;;5094080;28;20525;-86
2021/03/30 17:34:49;;;;;;;1.02;0.50;;;7.50;71.20;;;;;;5090033;28;20028;-78
2021/03/30 17:37:17;;;;;;;1.88;0.73;;;7.50;71.20;;;;;;5088654;28;20028;-77
2021/03/30 17:39:43;;;;;;;1.67;0.45;;;7.40;71.30;;;;;;5094756;28;20021;-77
2021/03/30 17:42:09;;;;;;;1.48;0.50;;;7.40;71.50;;;;;;5094831;28;20050;-77
2021/03/30 17:44:35;;;;;;;2.83;0.52;;;7.40;71.70;;;;;;5094497;28;20021;-80
2021/03/30 17:47:01;;;;;;;1.25;0.50;;;7.40;71.80;;;;;;5094957;28;20016;-82